Have a Safe July 4th! 

Flight Track Log - Related Links

Times and Time Zones

All times are in EDT time to prevent confusion due to time zone crossing. See the EMD28 flight status page for this flight to view local times or setup timezone preferences in your user account.

Time Position Orientation Groundspeed Altitude Reporting Facility
EDT Latitude Longitude Course Direction KTS MPH feet Rate Location/Type
Sat 12:24:44 AM 32.9539 -80.0928 320° Northwest 156 180 2,500  Level Jacksonville Center
Sat 12:25:44 AM 32.9922 -80.1311 320° Northwest 168 193 3,700 1,200 Climbing Jacksonville Center
Sat 12:26:44 AM 33.0286 -80.1747 315° West 179 206 4,900 1,100 Climbing Jacksonville Center
Sat 12:27:44 AM 33.0633 -80.2256 309° West 189 217 5,900 1,250 Climbing Jacksonville Center
Sat 12:28:44 AM 33.1058 -80.2714 318° Northwest 189 217 7,400 1,300 Climbing Jacksonville Center
Sat 12:29:00 AM 33.1760 -80.3761 320° Northwest  Level FlightAware Approximate
Sat 12:29:44 AM 33.1422 -80.3175 313° West 189 217 8,500  Level Jacksonville Center
Sat 12:30:44 AM 33.1786 -80.3636 313° West 184 212 9,400 958 Climbing Jacksonville Center
Sat 12:31:43 AM 33.2172 -80.4097 315° West 184 212 10,400 1,059 Climbing Jacksonville Center
Sat 12:32:43 AM 33.2536 -80.4533 315° West 184 212 11,500 1,000 Climbing Jacksonville Center
Sat 12:33:43 AM 33.2900 -80.5022 312° West 189 217 12,400 850 Climbing Jacksonville Center
Sat 12:34:43 AM 33.3283 -80.5508 313° West 189 217 13,200 800 Climbing Jacksonville Center
Sat 12:35:43 AM 33.3669 -80.5969 315° West 189 217 14,000 400 Climbing Jacksonville Center
Sat 12:36:43 AM 33.4097 -80.6531 312° West 204 235 14,000  Level Jacksonville Center
Sat 12:37:43 AM 33.4586 -80.7117 315° West 226 260 14,000  Level Jacksonville Center
Sat 12:38:43 AM 33.5078 -80.7728 314° West 244 281 14,000  Level Jacksonville Center
Sat 12:39:43 AM 33.5483 -80.8414 305° West 251 289 14,000  Level Jacksonville Center
Sat 12:40:43 AM 33.5914 -80.9103 307° West 261 300 14,000  Level Jacksonville Center
Sat 12:41:43 AM 33.6342 -80.9792 307° West 261 300 14,000  Level Jacksonville Center
Sat 12:42:43 AM 33.6769 -81.0481 307° West 261 300 14,000  Level Jacksonville Center
Sat 12:43:43 AM 33.7175 -81.1147 306° West 255 293 14,000 50 Level Jacksonville Center
Sat 12:44:43 AM 33.7622 -81.1839 308° West 255 293 14,100 50 Climbing Jacksonville Center
Sat 12:45:43 AM 33.8028 -81.2531 305° West 255 293 14,100  Level Jacksonville Center
Sat 12:46:43 AM 33.8475 -81.3197 309° West 255 293 14,100  Level Jacksonville Center
Sat 12:47:43 AM 33.8881 -81.3892 305° West 255 293 14,100  Level Jacksonville Center
Sat 12:48:43 AM 33.9306 -81.4558 308° West 255 293 14,100 -34 Level Jacksonville Center
Sat 12:50:37 AM 34.0011 -81.5756 305° West 248 285 14,000 -103 Descending Atlanta Center
Sat 12:51:37 AM 34.0400 -81.6422 305° West 248 285 13,800 -850 Descending Atlanta Center
Sat 12:52:37 AM 34.0853 -81.7136 307° West 253 291 12,300 -900 Descending Atlanta Center
Sat 12:53:37 AM 34.1325 -81.7878 308° West 258 297 12,000 -150 Descending Atlanta Center
Sat 12:54:37 AM 34.1692 -81.8544 304° West 252 290 12,000 -100 Level Atlanta Center
Sat 12:55:37 AM 34.2100 -81.9214 306° West 252 290 11,800 -850 Descending Atlanta Center
Sat 12:56:37 AM 34.2486 -81.9806 308° West 242 278 10,300 -1,550 Descending Atlanta Center
Sat 12:57:37 AM 34.2894 -82.0475 306° West 247 284 8,700 -1,600 Descending Atlanta Center
Sat 12:58:37 AM 34.3303 -82.1194 305° West 247 284 7,100 -1,600 Descending Atlanta Center
Sat 12:59:37 AM 34.3708 -82.1864 306° West 247 284 5,500 -1,650 Descending Atlanta Center
Sat 01:00:37 AM 34.4094 -82.2536 305° West 247 284 3,800 -950 Descending Atlanta Center
Sat 01:01:37 AM 34.4439 -82.3158 304° West 241 277 3,600 -50 Descending Atlanta Center
Sat 01:02:37 AM 34.4778 -82.3681 308° West 219 252 3,700 50 Climbing Atlanta Center
Sat 01:03:37 AM 34.5100 -82.4206 307° West 209 241 3,700  Level Atlanta Center
Sat 01:04:37 AM 34.5419 -82.4753 305° West 209 241 3,700 -400 Level Atlanta Center
Sat 01:05:37 AM 34.5822 -82.5275 313° West 209 241 2,900 -550 Descending Atlanta Center
Sat 01:06:37 AM 34.6322 -82.5267 North 181 208 2,600 -150 Descending Atlanta Center
Sat 01:07:37 AM 34.6567 -82.4833 56° Northeast 120 138 2,600  Level Atlanta Center
Sat 01:08:37 AM 34.6836 -82.4525 43° Northeast 125 144 2,600 -350 Level Atlanta Center
Sat 01:09:37 AM 34.7103 -82.4267 39° Northeast 125 144 1,900 -450 Descending Atlanta Center
Sat 01:10:37 AM 34.7392 -82.3983 39° Northeast 125 144 1,700 -200 Descending Atlanta Center

Login

Don't have an account? Register now (free) for customized features, flight alerts, and more!